Cemar Estates, Indiana
Current Conditions -  °F | °C
As of 9:53 PM on Friday 28 Nov 2014 (Local Time) from KHUF Reporting Station
Clear Clear  
Wind Chill: 27°   Ceiling: Unl
Heat Index: 34°   Visibility: 10mi
Dew Point: 25°   Wind: 9mph
Humidity: 70%   Direction: 160°SSE
Pressure: 30.01"   Gusts: NA
Location:  39.543°N, 87.3153°W
Report Text: KHUF 290253Z 16008KT 10SM CLR 01/M04 A3001 RMK AO2 SLP169 T00111039 58016
Loading
Personal Weather Stations






























Interactive Weather Map New forecast layout! Learn more

10-Day Weather Forecast

Advertisements
Track Severe Weather on mobile